createdAt,value
2023-02-16T00:01:26.626Z,3.23
2023-02-16T00:03:55.009Z,1.83
2023-02-16T00:06:28.544Z,2.37
2023-02-16T00:08:57.149Z,1.37
2023-02-16T00:11:45.300Z,2.10
2023-02-16T00:14:15.660Z,2.20
2023-02-16T00:16:51.497Z,1.50
2023-02-16T00:19:20.602Z,1.73
2023-02-16T00:21:48.272Z,1.40
2023-02-16T00:24:18.060Z,1.63
2023-02-16T00:26:46.212Z,2.10
2023-02-16T00:29:18.921Z,2.23
2023-02-16T00:31:46.879Z,3.10
2023-02-16T00:34:27.244Z,2.30
2023-02-16T00:36:55.808Z,2.20
2023-02-16T00:39:26.180Z,3.10
2023-02-16T00:41:54.801Z,5.10
2023-02-16T00:44:28.413Z,2.83
2023-02-16T00:46:56.427Z,1.80
2023-02-16T00:49:33.366Z,1.80
2023-02-16T00:52:01.894Z,2.87
2023-02-16T00:54:32.181Z,2.83
2023-02-16T00:57:01.015Z,4.83
2023-02-16T00:59:30.066Z,1.70
2023-02-16T01:01:58.325Z,4.17
2023-02-16T01:04:26.052Z,4.90
2023-02-16T01:07:11.151Z,4.63
2023-02-16T01:09:56.474Z,1.93
2023-02-16T01:12:24.559Z,3.20
2023-02-16T01:14:57.815Z,2.10
2023-02-16T01:17:25.827Z,3.00
2023-02-16T01:19:56.902Z,2.50
2023-02-16T01:22:25.200Z,2.17
2023-02-16T01:24:54.495Z,2.50
2023-02-16T01:27:21.849Z,2.63
2023-02-16T01:29:51.684Z,4.33
2023-02-16T01:32:24.032Z,2.40
2023-02-16T01:34:51.611Z,2.60
2023-02-16T01:37:21.806Z,2.17
2023-02-16T01:39:49.584Z,2.30
2023-02-16T01:42:26.878Z,3.13
2023-02-16T01:44:56.742Z,1.87
2023-02-16T01:47:31.135Z,2.37
2023-02-16T01:50:03.267Z,4.17
2023-02-16T01:52:34.669Z,3.03
2023-02-16T01:55:05.554Z,3.53
2023-02-16T01:57:37.570Z,3.23
2023-02-16T02:00:07.138Z,4.50
2023-02-16T02:02:44.436Z,2.70
2023-02-16T02:05:35.822Z,2.77
2023-02-16T02:08:22.577Z,2.57
2023-02-16T02:11:00.693Z,2.30
2023-02-16T02:13:30.215Z,2.77
2023-02-16T02:16:00.966Z,2.53
2023-02-16T02:18:29.928Z,2.87
2023-02-16T02:21:32.539Z,3.27
2023-02-16T02:24:17.617Z,3.83
2023-02-16T02:30:47.033Z,4.57
2023-02-16T02:33:27.425Z,3.40
2023-02-16T02:35:59.462Z,7.07
2023-02-16T02:38:31.177Z,4.13
2023-02-16T02:41:02.831Z,4.97
2023-02-16T02:43:36.673Z,5.13
2023-02-16T02:46:08.471Z,4.63
2023-02-16T02:48:36.133Z,4.30
2023-02-16T02:51:28.748Z,7.10
2023-02-16T02:54:19.242Z,4.73
2023-02-16T02:57:08.938Z,4.80
2023-02-16T02:59:56.286Z,5.20
2023-02-16T03:02:25.372Z,4.77
2023-02-16T03:04:53.806Z,4.07
2023-02-16T03:07:43.998Z,4.90
2023-02-16T03:10:25.605Z,4.10
2023-02-16T03:12:53.160Z,6.03
2023-02-16T03:15:21.060Z,3.27
2023-02-16T03:18:07.580Z,4.67
2023-02-16T03:20:52.463Z,4.13
2023-02-16T03:23:37.159Z,5.87
2023-02-16T03:26:22.100Z,6.50
2023-02-16T03:29:08.145Z,5.93
2023-02-16T03:31:38.403Z,7.70
2023-02-16T03:34:07.868Z,4.17
2023-02-16T03:36:36.159Z,6.63
2023-02-16T03:39:05.054Z,8.47
2023-02-16T03:41:34.638Z,10.23
2023-02-16T03:44:01.977Z,7.20
2023-02-16T03:46:29.338Z,7.43
2023-02-16T03:48:56.744Z,4.60
2023-02-16T03:51:25.916Z,7.20
2023-02-16T03:53:54.814Z,6.80
2023-02-16T03:56:22.151Z,4.87
2023-02-16T03:58:51.519Z,8.43
2023-02-16T04:01:19.628Z,9.37
2023-02-16T04:03:48.815Z,10.70
2023-02-16T04:06:16.161Z,6.80
2023-02-16T04:08:44.861Z,9.17
2023-02-16T04:11:29.916Z,5.00
2023-02-16T04:13:59.475Z,12.13
2023-02-16T04:16:27.147Z,10.03
2023-02-16T04:18:54.606Z,10.77
2023-02-16T04:21:21.927Z,12.53
2023-02-16T04:23:50.813Z,11.70
2023-02-16T04:26:18.179Z,14.10
2023-02-16T04:28:45.509Z,11.60
2023-02-16T04:31:13.146Z,10.17
2023-02-16T04:33:41.444Z,10.27
2023-02-16T04:36:09.083Z,12.27
2023-02-16T04:38:36.411Z,9.60
2023-02-16T04:41:05.486Z,11.23
2023-02-16T04:43:33.466Z,10.07
2023-02-16T04:46:01.890Z,13.83
2023-02-16T04:48:29.648Z,12.00
2023-02-16T04:50:57.016Z,13.13
2023-02-16T04:53:24.897Z,9.70
2023-02-16T04:55:52.433Z,11.67
2023-02-16T04:58:24.064Z,12.57
2023-02-16T05:00:51.514Z,11.70
2023-02-16T05:03:18.859Z,12.30
2023-02-16T05:05:48.230Z,12.97
2023-02-16T05:08:15.565Z,14.93
2023-02-16T05:10:42.906Z,11.17
2023-02-16T05:13:28.862Z,13.53
2023-02-16T05:15:58.009Z,11.47
2023-02-16T05:18:25.361Z,13.07
2023-02-16T05:21:10.564Z,10.83
2023-02-16T05:23:39.621Z,10.80
2023-02-16T05:26:07.375Z,11.43
2023-02-16T05:28:36.774Z,11.30
2023-02-16T05:31:06.520Z,10.47
2023-02-16T05:33:34.087Z,13.27
2023-02-16T05:36:01.420Z,13.63
2023-02-16T05:38:28.786Z,15.07
2023-02-16T05:40:58.415Z,14.23
2023-02-16T05:43:26.338Z,13.90
2023-02-16T05:45:53.807Z,12.13
2023-02-16T05:48:22.490Z,13.73
2023-02-16T05:50:49.829Z,13.40
2023-02-16T05:53:17.158Z,13.60
2023-02-16T05:55:44.955Z,13.70
2023-02-16T05:58:12.700Z,15.67
2023-02-16T06:00:40.039Z,19.03
2023-02-16T06:03:08.939Z,16.30
2023-02-16T06:05:37.651Z,16.57
2023-02-16T06:08:05.153Z,15.17
2023-02-16T06:10:34.074Z,20.50
2023-02-16T06:13:01.433Z,18.43
2023-02-16T06:15:28.925Z,16.17
2023-02-16T06:17:56.257Z,20.43
2023-02-16T06:20:23.634Z,16.10
2023-02-16T06:22:52.304Z,19.17
2023-02-16T06:25:20.226Z,19.40
2023-02-16T06:27:47.614Z,16.97
2023-02-16T06:30:15.144Z,16.97
2023-02-16T06:32:42.487Z,18.07
2023-02-16T06:35:09.935Z,14.53
2023-02-16T06:37:37.300Z,14.40
2023-02-16T06:40:06.728Z,17.60
2023-02-16T06:42:34.306Z,21.30
2023-02-16T06:45:01.649Z,18.00
2023-02-16T06:47:29.441Z,19.87
2023-02-16T06:49:56.845Z,19.50
2023-02-16T06:52:24.449Z,14.30
2023-02-16T06:54:51.878Z,13.23
2023-02-16T06:57:20.561Z,18.57
2023-02-16T06:59:48.664Z,16.27
2023-02-16T07:02:16.166Z,15.50
2023-02-16T07:04:43.611Z,16.73
2023-02-16T07:07:11.030Z,16.50
2023-02-16T07:09:38.377Z,18.87
2023-02-16T07:12:07.103Z,18.30
2023-02-16T07:14:35.772Z,18.10
2023-02-16T07:17:04.375Z,16.07
2023-02-16T07:19:33.737Z,18.17
2023-02-16T07:22:01.423Z,18.90
2023-02-16T07:24:28.792Z,17.90
2023-02-16T07:26:56.489Z,20.87
2023-02-16T07:29:25.447Z,21.93
2023-02-16T07:31:56.459Z,18.90
2023-02-16T07:34:23.918Z,16.73
2023-02-16T07:36:51.349Z,17.87
2023-02-16T07:39:18.745Z,22.77
2023-02-16T07:41:46.217Z,18.10
2023-02-16T07:44:18.492Z,21.07
2023-02-16T07:46:45.823Z,20.17
2023-02-16T07:49:14.586Z,18.07
2023-02-16T07:51:41.954Z,21.43
2023-02-16T07:54:09.373Z,17.07
2023-02-16T07:56:36.744Z,19.10
2023-02-16T07:59:04.379Z,20.13
2023-02-16T08:01:32.096Z,20.07
2023-02-16T08:04:01.417Z,20.57
2023-02-16T08:06:31.779Z,21.67
2023-02-16T08:08:59.129Z,22.03
2023-02-16T08:11:27.937Z,20.37
2023-02-16T08:13:55.318Z,21.53
2023-02-16T08:16:24.397Z,20.37
2023-02-16T08:18:52.636Z,20.93
2023-02-16T08:21:23.443Z,21.43
2023-02-16T08:23:55.879Z,20.90
2023-02-16T08:26:24.260Z,21.63
2023-02-16T08:28:52.581Z,22.03
2023-02-16T08:31:23.036Z,20.57
2023-02-16T08:33:50.846Z,22.97
2023-02-16T08:36:20.435Z,20.73
2023-02-16T08:38:50.347Z,19.00
2023-02-16T08:41:19.611Z,20.00
2023-02-16T08:43:47.706Z,20.30
2023-02-16T08:46:16.511Z,19.70
2023-02-16T08:48:45.218Z,18.37
2023-02-16T08:51:14.957Z,20.87
2023-02-16T08:53:43.235Z,21.13
2023-02-16T08:56:15.319Z,23.53
2023-02-16T08:58:44.954Z,21.40
2023-02-16T09:01:15.562Z,23.77
2023-02-16T09:03:45.049Z,20.47
2023-02-16T09:06:15.823Z,23.53
2023-02-16T09:08:45.207Z,23.53
2023-02-16T09:11:13.752Z,21.43
2023-02-16T09:13:43.425Z,24.50
2023-02-16T09:16:17.508Z,27.00
2023-02-16T09:18:46.302Z,22.03
2023-02-16T09:21:16.247Z,23.07
2023-02-16T09:23:47.498Z,24.93
2023-02-16T09:26:16.749Z,22.07
2023-02-16T09:28:44.733Z,22.20
2023-02-16T09:31:14.606Z,23.23
2023-02-16T09:33:43.014Z,20.07
2023-02-16T09:36:11.891Z,20.40
2023-02-16T09:38:40.019Z,18.17
2023-02-16T09:41:08.942Z,22.20
2023-02-16T09:43:41.632Z,17.33
2023-02-16T09:46:12.551Z,15.30
2023-02-16T09:48:43.427Z,13.60
2023-02-16T09:51:17.168Z,15.17
2023-02-16T09:53:46.369Z,15.97
2023-02-16T09:56:20.873Z,15.97
2023-02-16T09:58:50.470Z,14.47
2023-02-16T10:01:21.476Z,14.80
2023-02-16T10:03:55.633Z,13.70
2023-02-16T10:06:28.378Z,15.70
2023-02-16T10:08:58.531Z,13.53
2023-02-16T10:11:41.840Z,14.50
2023-02-16T10:14:14.351Z,19.03
2023-02-16T10:16:43.245Z,9.27
2023-02-16T10:19:19.325Z,12.80
2023-02-16T10:21:49.848Z,16.47
2023-02-16T10:24:17.605Z,13.10
2023-02-16T10:26:47.035Z,11.03
2023-02-16T10:29:15.619Z,13.50
2023-02-16T10:31:44.446Z,15.10
2023-02-16T10:34:21.345Z,12.00
2023-02-16T10:36:58.178Z,10.87
2023-02-16T10:39:27.149Z,11.87
2023-02-16T10:41:58.113Z,14.07
2023-02-16T10:44:28.088Z,16.40
2023-02-16T10:46:57.366Z,13.10
2023-02-16T10:49:27.074Z,13.73
2023-02-16T10:51:55.820Z,11.50
2023-02-16T10:54:25.528Z,15.70
2023-02-16T10:56:54.149Z,13.80
2023-02-16T10:59:22.546Z,11.27
2023-02-16T11:01:51.280Z,13.60
2023-02-16T11:04:35.684Z,13.03
2023-02-16T11:07:04.930Z,14.43
2023-02-16T11:09:32.834Z,14.37
2023-02-16T11:12:01.148Z,14.50
2023-02-16T11:14:30.311Z,12.37
2023-02-16T11:17:05.151Z,10.23
2023-02-16T11:19:35.340Z,14.10
2023-02-16T11:22:03.298Z,12.00
2023-02-16T11:24:33.238Z,14.13
2023-02-16T11:27:02.410Z,18.07
2023-02-16T11:29:29.854Z,15.40
2023-02-16T11:31:57.764Z,13.40
2023-02-16T11:34:29.968Z,13.43
2023-02-16T11:37:04.491Z,14.47
2023-02-16T11:39:34.496Z,13.97
2023-02-16T11:42:04.137Z,17.90
2023-02-16T11:44:33.562Z,16.67
2023-02-16T11:47:02.686Z,14.93
2023-02-16T11:49:31.494Z,14.73
2023-02-16T11:51:59.365Z,15.23
2023-02-16T11:54:28.471Z,14.50
2023-02-16T11:57:04.154Z,12.30
2023-02-16T11:59:33.781Z,14.40
2023-02-16T12:02:18.704Z,9.10
2023-02-16T12:04:52.934Z,7.97
2023-02-16T12:07:24.319Z,11.17
2023-02-16T12:09:57.823Z,17.23
2023-02-16T12:12:32.128Z,13.17
2023-02-16T12:15:03.579Z,12.47
2023-02-16T12:17:43.168Z,14.40
2023-02-16T12:20:15.705Z,12.33
2023-02-16T12:22:45.574Z,13.90
2023-02-16T12:25:27.813Z,14.40
2023-02-16T12:27:56.769Z,15.33
2023-02-16T12:30:37.028Z,15.60
2023-02-16T12:33:09.616Z,15.00
2023-02-16T12:35:51.345Z,10.63
2023-02-16T12:38:22.910Z,9.93
2023-02-16T12:40:58.085Z,11.17
2023-02-16T12:43:33.123Z,18.17
2023-02-16T12:46:04.342Z,15.20
2023-02-16T12:48:37.350Z,14.10
2023-02-16T12:51:07.409Z,8.57
2023-02-16T12:53:39.449Z,13.60
2023-02-16T12:56:12.415Z,13.83
2023-02-16T12:58:41.060Z,13.87
2023-02-16T13:01:13.903Z,9.53
2023-02-16T13:03:44.580Z,10.07
2023-02-16T13:06:17.113Z,15.10
2023-02-16T13:08:46.497Z,14.53
2023-02-16T13:11:20.006Z,9.67
2023-02-16T13:13:48.256Z,17.37
2023-02-16T13:16:29.538Z,16.20
2023-02-16T13:18:58.145Z,15.87
2023-02-16T13:21:50.368Z,15.90
2023-02-16T13:24:22.018Z,14.83
2023-02-16T13:27:10.483Z,14.90
2023-02-16T13:29:47.544Z,14.57
2023-02-16T13:32:29.064Z,10.77
2023-02-16T13:35:07.023Z,17.17
2023-02-16T13:37:42.618Z,14.00
2023-02-16T13:40:28.011Z,16.10
2023-02-16T13:43:01.810Z,13.07
2023-02-16T13:45:31.765Z,12.20
2023-02-16T13:47:59.592Z,13.17
2023-02-16T13:50:29.325Z,12.30
2023-02-16T13:52:58.502Z,12.87
2023-02-16T13:55:28.435Z,14.10
2023-02-16T13:57:58.674Z,12.60
2023-02-16T14:00:29.047Z,13.20
2023-02-16T14:02:59.317Z,12.97
2023-02-16T14:05:31.624Z,12.57
2023-02-16T14:08:13.504Z,11.90
2023-02-16T14:11:01.656Z,13.07
2023-02-16T14:13:30.037Z,15.00
2023-02-16T14:15:59.466Z,16.30
2023-02-16T14:18:31.254Z,8.50
2023-02-16T14:21:02.344Z,10.80
2023-02-16T14:23:34.434Z,12.13
2023-02-16T14:26:03.100Z,12.37
2023-02-16T14:29:04.164Z,11.47
2023-02-16T14:31:31.974Z,13.27
2023-02-16T14:34:04.525Z,14.70
2023-02-16T14:36:32.462Z,13.73
2023-02-16T14:39:01.532Z,14.10
2023-02-16T14:41:30.516Z,11.13
2023-02-16T14:44:12.814Z,11.97
2023-02-16T14:46:47.276Z,12.73
2023-02-16T14:49:24.046Z,13.33
2023-02-16T14:52:04.656Z,15.63
2023-02-16T14:54:47.741Z,14.37
2023-02-16T14:57:16.590Z,13.47
2023-02-16T14:59:46.618Z,16.20
2023-02-16T15:02:27.753Z,14.43
2023-02-16T15:04:56.822Z,12.27
2023-02-16T15:07:25.072Z,11.73
2023-02-16T15:09:57.117Z,12.67
2023-02-16T15:12:40.471Z,12.40
2023-02-16T15:15:10.008Z,11.70
2023-02-16T15:17:39.058Z,14.57
2023-02-16T15:20:11.213Z,13.20
2023-02-16T15:22:44.321Z,14.23
2023-02-16T15:25:21.155Z,14.07
2023-02-16T15:27:53.806Z,12.20
2023-02-16T15:30:23.101Z,15.13
2023-02-16T15:32:53.255Z,14.87
2023-02-16T15:35:27.370Z,12.70
2023-02-16T15:38:02.077Z,12.53
2023-02-16T15:40:32.858Z,11.23
2023-02-16T15:43:04.373Z,12.57
2023-02-16T15:45:34.117Z,14.80
2023-02-16T15:48:14.398Z,11.77
2023-02-16T15:50:43.454Z,15.00
2023-02-16T15:53:12.707Z,15.50
2023-02-16T15:55:43.358Z,14.47
2023-02-16T15:58:12.434Z,13.57
2023-02-16T16:00:41.892Z,13.53
2023-02-16T16:03:10.009Z,13.87
2023-02-16T16:05:39.789Z,13.90
2023-02-16T16:08:12.073Z,17.07
2023-02-16T16:10:41.876Z,15.63
2023-02-16T16:13:13.661Z,15.80
2023-02-16T16:15:42.518Z,14.43
2023-02-16T16:18:25.809Z,14.43
2023-02-16T16:21:00.156Z,14.03
2023-02-16T16:23:29.536Z,15.13
2023-02-16T16:25:58.378Z,14.73
2023-02-16T16:28:37.887Z,20.10
2023-02-16T16:31:09.565Z,23.30
2023-02-16T16:33:52.086Z,14.13
2023-02-16T16:36:19.621Z,17.57
2023-02-16T16:38:48.720Z,13.23
2023-02-16T16:41:25.771Z,12.77
2023-02-16T16:43:54.568Z,17.13
2023-02-16T16:46:25.023Z,22.20
2023-02-16T16:48:54.604Z,18.40
2023-02-16T16:51:36.306Z,15.83
2023-02-16T16:54:06.225Z,15.27
2023-02-16T16:56:36.937Z,17.60
2023-02-16T16:59:05.196Z,18.27
2023-02-16T17:01:33.246Z,19.63
2023-02-16T17:04:01.479Z,19.03
2023-02-16T17:06:29.849Z,40.77
2023-02-16T17:08:57.594Z,35.90
2023-02-16T17:11:27.484Z,17.77
2023-02-16T17:13:55.593Z,15.43
2023-02-16T17:16:25.517Z,15.23
2023-02-16T17:18:53.039Z,15.53
2023-02-16T17:21:21.124Z,13.97
2023-02-16T17:23:53.094Z,13.20
2023-02-16T17:26:20.957Z,12.40
2023-02-16T17:28:50.016Z,13.70
2023-02-16T17:31:17.443Z,13.00
2023-02-16T17:33:45.365Z,14.90
2023-02-16T17:36:14.594Z,14.20
2023-02-16T17:38:42.066Z,12.70
2023-02-16T17:41:17.424Z,10.13
2023-02-16T17:43:45.382Z,11.80
2023-02-16T17:46:14.727Z,12.17
2023-02-16T17:48:42.208Z,12.53
2023-02-16T17:51:14.175Z,8.40
2023-02-16T17:53:41.716Z,8.93
2023-02-16T17:56:11.551Z,10.03
2023-02-16T17:58:39.551Z,8.27
2023-02-16T18:01:07.469Z,8.57
2023-02-16T18:03:36.606Z,10.37
2023-02-16T18:06:04.507Z,10.60
2023-02-16T18:08:32.124Z,12.27
2023-02-16T18:11:02.633Z,8.53
2023-02-16T18:13:30.500Z,9.70
2023-02-16T18:15:59.501Z,11.43
2023-02-16T18:18:27.531Z,9.53
2023-02-16T18:20:56.442Z,9.43
2023-02-16T18:23:23.857Z,10.30
2023-02-16T18:25:51.307Z,9.40
2023-02-16T18:28:20.360Z,12.50
2023-02-16T18:30:49.181Z,10.63
2023-02-16T18:33:16.755Z,10.87
2023-02-16T18:35:44.230Z,11.63
2023-02-16T18:38:12.882Z,14.23
2023-02-16T18:40:41.936Z,14.17
2023-02-16T18:43:10.714Z,10.80
2023-02-16T18:45:39.060Z,11.50
2023-02-16T18:48:06.544Z,8.87
2023-02-16T18:50:34.229Z,11.20
2023-02-16T18:53:01.668Z,9.13
2023-02-16T18:55:32.994Z,11.73
2023-02-16T18:58:00.723Z,12.60
2023-02-16T19:00:28.220Z,9.77
2023-02-16T19:02:56.909Z,13.87
2023-02-16T19:05:24.834Z,11.20
2023-02-16T19:07:52.276Z,12.50
2023-02-16T19:10:19.834Z,13.97
2023-02-16T19:12:48.785Z,18.70
2023-02-16T19:15:16.385Z,11.20
2023-02-16T19:17:44.053Z,12.33
2023-02-16T19:20:16.768Z,11.03
2023-02-16T19:22:44.486Z,12.47
2023-02-16T19:25:11.833Z,13.10
2023-02-16T19:27:39.401Z,13.27
2023-02-16T19:30:08.839Z,11.83
2023-02-16T19:32:36.609Z,16.70
2023-02-16T19:35:04.508Z,13.33
2023-02-16T19:37:32.010Z,15.30
2023-02-16T19:39:59.421Z,15.00
2023-02-16T19:42:27.141Z,16.13
2023-02-16T19:44:54.637Z,13.77
2023-02-16T19:47:23.342Z,16.23
2023-02-16T19:49:50.739Z,14.67
2023-02-16T19:52:18.184Z,19.90
2023-02-16T19:54:45.673Z,15.70
2023-02-16T19:57:13.189Z,15.70
2023-02-16T19:59:40.858Z,18.43
2023-02-16T20:02:08.240Z,16.37
2023-02-16T20:04:37.041Z,14.50
2023-02-16T20:07:05.104Z,13.97
2023-02-16T20:09:32.476Z,15.40
2023-02-16T20:11:59.950Z,14.90
2023-02-16T20:14:27.298Z,14.33
2023-02-16T20:16:54.624Z,17.60
2023-02-16T20:19:22.425Z,18.27
2023-02-16T20:21:51.170Z,15.67
2023-02-16T20:24:18.634Z,17.73
2023-02-16T20:26:46.653Z,22.43
2023-02-16T20:29:15.329Z,17.80
2023-02-16T20:31:45.308Z,18.77
2023-02-16T20:34:12.855Z,18.73
2023-02-16T20:36:40.300Z,17.50
2023-02-16T20:39:09.737Z,15.00
2023-02-16T20:41:37.925Z,14.73
2023-02-16T20:44:05.555Z,17.07
2023-02-16T20:46:33.122Z,15.17
2023-02-16T20:49:00.645Z,15.43
2023-02-16T20:51:28.177Z,22.27
2023-02-16T20:53:55.541Z,16.50
2023-02-16T20:56:25.160Z,16.50
2023-02-16T20:58:53.886Z,17.00
2023-02-16T21:01:22.191Z,15.17
2023-02-16T21:03:49.858Z,16.30
2023-02-16T21:06:17.346Z,17.17
2023-02-16T21:08:44.866Z,15.97
2023-02-16T21:11:12.538Z,15.83
2023-02-16T21:13:41.712Z,15.17
2023-02-16T21:16:09.438Z,15.30
2023-02-16T21:18:40.038Z,16.10
2023-02-16T21:21:07.925Z,14.70
2023-02-16T21:23:36.066Z,15.30
2023-02-16T21:26:05.136Z,15.10
2023-02-16T21:28:33.299Z,13.67
2023-02-16T21:31:05.144Z,14.00
2023-02-16T21:33:32.628Z,12.77
2023-02-16T21:36:03.897Z,13.93
2023-02-16T21:38:31.586Z,14.57
2023-02-16T21:41:20.102Z,14.00
2023-02-16T21:43:47.473Z,21.63
2023-02-16T21:46:16.279Z,17.23
2023-02-16T21:48:45.334Z,13.97
2023-02-16T21:51:13.049Z,13.33
2023-02-16T21:53:40.873Z,13.53
2023-02-16T21:56:16.784Z,15.40
2023-02-16T21:58:44.845Z,14.23
2023-02-16T22:01:12.322Z,13.97
2023-02-16T22:03:41.568Z,13.20
2023-02-16T22:06:09.478Z,14.87
2023-02-16T22:08:38.469Z,14.37
2023-02-16T22:11:07.038Z,13.47
2023-02-16T22:13:34.725Z,11.93
2023-02-16T22:16:02.208Z,13.93
2023-02-16T22:18:29.546Z,13.93
2023-02-16T22:21:02.513Z,14.97
2023-02-16T22:23:30.100Z,12.77
2023-02-16T22:25:57.436Z,12.73
2023-02-16T22:28:24.864Z,11.47
2023-02-16T22:30:52.278Z,10.53
2023-02-16T22:33:19.746Z,16.30
2023-02-16T22:35:47.178Z,15.70
2023-02-16T22:38:15.963Z,11.10
2023-02-16T22:40:43.421Z,10.40
2023-02-16T22:43:10.754Z,14.87
2023-02-16T22:45:38.329Z,11.27
2023-02-16T22:48:05.816Z,12.10
2023-02-16T22:50:33.265Z,12.00
2023-02-16T22:53:00.659Z,13.07
2023-02-16T22:55:29.399Z,14.23
2023-02-16T22:57:56.756Z,13.50
2023-02-16T23:00:24.151Z,12.83
2023-02-16T23:02:51.562Z,14.40
2023-02-16T23:05:19.088Z,13.07
2023-02-16T23:07:46.460Z,10.33
2023-02-16T23:10:15.929Z,13.63
2023-02-16T23:12:44.794Z,11.50
2023-02-16T23:15:12.468Z,10.80
2023-02-16T23:17:39.999Z,10.73
2023-02-16T23:20:09.179Z,12.23
2023-02-16T23:22:36.507Z,11.07
2023-02-16T23:25:21.844Z,10.27
2023-02-16T23:27:52.198Z,10.43
2023-02-16T23:30:19.954Z,14.90
2023-02-16T23:32:47.612Z,10.50
2023-02-16T23:35:15.103Z,12.37
2023-02-16T23:37:42.452Z,9.50
2023-02-16T23:40:10.210Z,13.60
2023-02-16T23:42:37.559Z,9.83
2023-02-16T23:45:06.567Z,10.03
2023-02-16T23:47:33.920Z,12.00
2023-02-16T23:50:01.244Z,13.40
2023-02-16T23:52:28.619Z,13.23
2023-02-16T23:54:56.193Z,13.10
2023-02-16T23:57:23.553Z,11.13
2023-02-16T23:59:51.326Z,10.27
